createdAt,value
2023-04-09T00:01:30.774Z,6.42
2023-04-09T00:03:58.259Z,6.31
2023-04-09T00:06:26.006Z,6.23
2023-04-09T00:08:53.468Z,5.90
2023-04-09T00:11:21.682Z,5.85
2023-04-09T00:13:48.932Z,5.93
2023-04-09T00:16:16.147Z,6.04
2023-04-09T00:18:43.299Z,5.96
2023-04-09T00:21:10.645Z,5.87
2023-04-09T00:23:37.872Z,6.03
2023-04-09T00:26:05.382Z,6.05
2023-04-09T00:28:32.533Z,6.25
2023-04-09T00:30:59.843Z,6.13
2023-04-09T00:33:27.296Z,6.16
2023-04-09T00:35:54.731Z,6.22
2023-04-09T00:38:21.940Z,6.18
2023-04-09T00:40:51.316Z,6.28
2023-04-09T00:43:19.001Z,6.25
2023-04-09T00:45:46.438Z,6.19
2023-04-09T00:48:16.010Z,6.15
2023-04-09T00:50:43.558Z,6.10
2023-04-09T00:53:12.318Z,5.86
2023-04-09T00:55:42.851Z,5.80
2023-04-09T00:58:10.128Z,5.81
2023-04-09T01:00:37.673Z,5.86
2023-04-09T01:03:07.054Z,5.72
2023-04-09T01:06:17.967Z,6.00
2023-04-09T01:08:55.526Z,6.16
2023-04-09T01:12:04.779Z,6.18
2023-04-09T01:15:06.327Z,6.10
2023-04-09T01:17:59.343Z,5.75
2023-04-09T01:20:42.312Z,5.65
2023-04-09T01:23:55.523Z,5.73
2023-04-09T01:26:57.290Z,5.49
2023-04-09T01:29:33.344Z,5.57
2023-04-09T01:32:04.256Z,5.82
2023-04-09T01:34:31.979Z,5.89
2023-04-09T01:37:03.459Z,5.81
2023-04-09T01:39:31.512Z,5.71
2023-04-09T01:41:59.126Z,5.63
2023-04-09T01:44:27.685Z,5.63
2023-04-09T01:46:55.205Z,5.67
2023-04-09T01:49:23.426Z,5.77
2023-04-09T01:51:51.053Z,5.87
2023-04-09T01:54:18.285Z,5.72
2023-04-09T01:56:48.094Z,5.66
2023-04-09T01:59:16.142Z,5.83
2023-04-09T02:01:53.464Z,5.79
2023-04-09T02:04:30.912Z,5.52
2023-04-09T02:07:23.793Z,5.56
2023-04-09T02:09:54.744Z,5.74
2023-04-09T02:12:23.191Z,5.50
2023-04-09T02:14:52.705Z,5.44
2023-04-09T02:17:20.367Z,5.69
2023-04-09T02:19:48.387Z,5.79
2023-04-09T02:22:16.954Z,5.77
2023-04-09T02:24:44.380Z,5.76
2023-04-09T02:27:11.660Z,5.80
2023-04-09T02:29:41.896Z,5.89
2023-04-09T02:32:09.112Z,5.83
2023-04-09T02:34:36.352Z,5.75
2023-04-09T02:37:03.702Z,5.81
2023-04-09T02:39:30.944Z,5.78
2023-04-09T02:41:58.154Z,5.77
2023-04-09T02:44:27.697Z,5.62
2023-04-09T02:46:55.896Z,5.64
2023-04-09T02:49:23.383Z,5.68
2023-04-09T02:51:50.675Z,5.62
2023-04-09T02:54:18.058Z,5.56
2023-04-09T02:56:45.312Z,5.43
2023-04-09T02:59:12.639Z,5.39
2023-04-09T03:01:39.970Z,5.47
2023-04-09T03:04:07.384Z,5.59
2023-04-09T03:06:34.742Z,5.55
2023-04-09T03:09:01.950Z,5.47
2023-04-09T03:11:29.221Z,5.40
2023-04-09T03:13:56.497Z,5.62
2023-04-09T03:16:26.521Z,5.59
2023-04-09T03:18:54.191Z,5.51
2023-04-09T03:21:21.665Z,5.52
2023-04-09T03:23:50.972Z,5.48
2023-04-09T03:26:18.242Z,5.47
2023-04-09T03:28:48.716Z,5.35
2023-04-09T03:31:17.130Z,5.36
2023-04-09T03:33:45.802Z,5.46
2023-04-09T03:36:14.021Z,5.44
2023-04-09T03:39:01.799Z,5.55
2023-04-09T03:41:32.681Z,5.46
2023-04-09T03:44:03.694Z,5.48
2023-04-09T03:46:37.459Z,5.61
2023-04-09T03:49:05.337Z,5.65
2023-04-09T03:51:40.337Z,5.61
2023-04-09T03:54:08.348Z,5.52
2023-04-09T03:56:35.987Z,5.64
2023-04-09T03:59:06.610Z,5.52
2023-04-09T04:01:39.050Z,5.42
2023-04-09T04:04:06.397Z,5.45
2023-04-09T04:06:38.189Z,5.61
2023-04-09T04:09:28.059Z,5.55
2023-04-09T04:11:59.066Z,5.56
2023-04-09T04:14:40.332Z,5.64
2023-04-09T04:17:18.074Z,5.69
2023-04-09T04:19:45.667Z,5.55
2023-04-09T04:22:12.904Z,5.42
2023-04-09T04:24:43.115Z,5.39
2023-04-09T04:27:10.404Z,5.41
2023-04-09T04:29:37.718Z,5.44
2023-04-09T04:32:13.270Z,5.60
2023-04-09T04:34:40.799Z,5.60
2023-04-09T04:37:20.228Z,5.49
2023-04-09T04:39:47.463Z,5.63
2023-04-09T04:42:17.166Z,5.54
2023-04-09T04:44:45.792Z,5.51
2023-04-09T04:47:33.162Z,5.66
2023-04-09T04:50:01.376Z,5.77
2023-04-09T04:52:30.198Z,5.86
2023-04-09T04:54:57.642Z,5.76
2023-04-09T04:57:25.840Z,5.79
2023-04-09T04:59:53.926Z,5.65
2023-04-09T05:02:22.057Z,5.60
2023-04-09T05:05:09.457Z,5.60
2023-04-09T05:07:42.528Z,5.65
2023-04-09T05:10:10.373Z,5.55
2023-04-09T05:12:41.450Z,5.60
2023-04-09T05:15:10.091Z,5.74
2023-04-09T05:17:38.726Z,5.70
2023-04-09T05:20:08.496Z,5.67
2023-04-09T05:22:46.436Z,5.87
2023-04-09T05:25:16.214Z,6.00
2023-04-09T05:27:44.042Z,5.91
2023-04-09T05:30:11.742Z,6.03
2023-04-09T05:32:40.971Z,6.04
2023-04-09T05:35:08.952Z,5.82
2023-04-09T05:37:40.649Z,6.15
2023-04-09T05:40:08.882Z,6.40
2023-04-09T05:42:36.322Z,6.23
2023-04-09T05:45:10.376Z,6.39
2023-04-09T05:47:39.106Z,6.49
2023-04-09T05:50:15.340Z,6.80
2023-04-09T05:52:43.015Z,6.94
2023-04-09T05:55:12.190Z,7.04
2023-04-09T05:57:45.625Z,7.07
2023-04-09T06:00:14.101Z,7.19
2023-04-09T06:02:45.513Z,7.41
2023-04-09T06:05:12.925Z,7.67
2023-04-09T06:07:40.180Z,7.63
2023-04-09T06:10:08.588Z,7.58
2023-04-09T06:12:36.348Z,7.66
2023-04-09T06:15:07.950Z,7.77
2023-04-09T06:17:35.342Z,7.75
2023-04-09T06:20:02.754Z,7.67
2023-04-09T06:22:30.076Z,7.74
2023-04-09T06:24:57.303Z,8.08
2023-04-09T06:27:24.611Z,8.35
2023-04-09T06:29:51.800Z,8.47
2023-04-09T06:32:18.989Z,8.53
2023-04-09T06:34:46.423Z,8.42
2023-04-09T06:37:13.666Z,8.89
2023-04-09T06:39:47.601Z,9.49
2023-04-09T06:42:26.633Z,10.17
2023-04-09T06:45:11.053Z,11.11
2023-04-09T06:47:38.404Z,11.73
2023-04-09T06:50:06.544Z,12.22
2023-04-09T06:52:33.830Z,12.92
2023-04-09T06:55:01.384Z,13.14
2023-04-09T06:57:28.851Z,13.54
2023-04-09T06:59:56.640Z,14.55
2023-04-09T07:02:24.193Z,15.22
2023-04-09T07:04:51.673Z,15.19
2023-04-09T07:07:20.879Z,13.80
2023-04-09T07:09:49.017Z,13.35
2023-04-09T07:12:26.993Z,12.89
2023-04-09T07:15:03.833Z,12.71
2023-04-09T07:17:35.460Z,11.99
2023-04-09T07:20:02.859Z,11.73
2023-04-09T07:22:31.211Z,11.46
2023-04-09T07:24:58.578Z,11.01
2023-04-09T07:27:29.294Z,11.11
2023-04-09T07:29:59.870Z,10.65
2023-04-09T07:32:31.006Z,10.39
2023-04-09T07:34:59.604Z,10.82
2023-04-09T07:37:27.300Z,11.44
2023-04-09T07:39:54.899Z,11.67
2023-04-09T07:42:22.632Z,11.36
2023-04-09T07:44:49.963Z,11.65
2023-04-09T07:47:17.213Z,11.50
2023-04-09T07:49:44.598Z,11.97
2023-04-09T07:52:12.173Z,12.72
2023-04-09T07:54:39.476Z,14.32
2023-04-09T07:57:07.051Z,15.98
2023-04-09T07:59:37.548Z,15.94
2023-04-09T08:02:04.833Z,15.82
2023-04-09T08:04:32.626Z,15.17
2023-04-09T08:07:00.154Z,13.80
2023-04-09T08:09:27.516Z,12.95
2023-04-09T08:11:54.916Z,12.28
2023-04-09T08:14:22.129Z,12.56
2023-04-09T08:16:50.549Z,13.99
2023-04-09T08:19:19.158Z,13.93
2023-04-09T08:21:48.977Z,13.38
2023-04-09T08:24:16.638Z,13.35
2023-04-09T08:26:44.393Z,12.44
2023-04-09T08:29:13.751Z,12.36
2023-04-09T08:31:42.059Z,12.62
2023-04-09T08:34:09.551Z,12.42
2023-04-09T08:36:37.131Z,12.30
2023-04-09T08:39:04.611Z,11.74
2023-04-09T08:41:32.044Z,12.21
2023-04-09T08:43:59.895Z,12.36
2023-04-09T08:46:28.171Z,12.20
2023-04-09T08:48:56.195Z,12.78
2023-04-09T08:51:25.136Z,12.88
2023-04-09T08:54:10.652Z,13.66
2023-04-09T08:56:37.888Z,13.56
2023-04-09T08:59:05.606Z,13.63
2023-04-09T09:01:33.543Z,13.52
2023-04-09T09:04:04.391Z,13.30
2023-04-09T09:06:38.325Z,13.33
2023-04-09T09:09:08.705Z,13.03
2023-04-09T09:11:57.040Z,13.59
2023-04-09T09:14:24.380Z,13.92
2023-04-09T09:16:57.905Z,14.63
2023-04-09T09:19:25.330Z,15.08
2023-04-09T09:22:08.089Z,15.71
2023-04-09T09:24:50.726Z,15.81
2023-04-09T09:27:50.860Z,17.05
2023-04-09T09:30:27.210Z,16.54
2023-04-09T09:33:11.362Z,16.33
2023-04-09T09:35:55.298Z,15.71
2023-04-09T09:38:22.617Z,15.04
2023-04-09T09:40:50.593Z,14.04
2023-04-09T09:43:17.951Z,13.96
2023-04-09T09:45:48.350Z,13.61
2023-04-09T09:48:16.511Z,13.40
2023-04-09T09:50:46.474Z,13.60
2023-04-09T09:53:17.554Z,13.35
2023-04-09T09:55:49.638Z,13.39
2023-04-09T09:58:23.743Z,13.23
2023-04-09T10:00:52.870Z,12.84
2023-04-09T10:03:30.856Z,12.13
2023-04-09T10:06:01.144Z,12.29
2023-04-09T10:08:30.521Z,12.40
2023-04-09T10:10:59.042Z,12.21
2023-04-09T10:13:40.603Z,11.95
2023-04-09T10:16:08.993Z,12.00
2023-04-09T10:18:37.415Z,12.17
2023-04-09T10:21:12.820Z,12.83
2023-04-09T10:23:45.161Z,13.55
2023-04-09T10:26:12.447Z,14.19
2023-04-09T10:28:40.316Z,15.60
2023-04-09T10:31:08.880Z,18.33
2023-04-09T10:33:39.752Z,18.29
2023-04-09T10:36:13.440Z,18.66
2023-04-09T10:38:45.709Z,18.94
2023-04-09T10:41:25.264Z,21.01
2023-04-09T10:43:52.551Z,20.17
2023-04-09T10:46:34.251Z,21.69
2023-04-09T10:49:19.646Z,19.42
2023-04-09T10:52:06.556Z,18.21
2023-04-09T10:54:34.316Z,19.11
2023-04-09T10:57:07.619Z,18.87
2023-04-09T10:59:55.587Z,17.42
2023-04-09T11:02:50.006Z,15.87
2023-04-09T11:05:39.942Z,15.63
2023-04-09T11:08:09.899Z,14.60
2023-04-09T11:10:38.840Z,14.07
2023-04-09T11:13:06.460Z,13.62
2023-04-09T11:15:37.419Z,13.47
2023-04-09T11:18:07.092Z,13.33
2023-04-09T11:20:35.752Z,13.10
2023-04-09T11:23:03.565Z,12.84
2023-04-09T11:25:35.691Z,12.57
2023-04-09T11:28:05.159Z,12.60
2023-04-09T11:30:34.506Z,12.45
2023-04-09T11:33:02.722Z,12.69
2023-04-09T11:35:30.216Z,12.76
2023-04-09T11:37:57.633Z,12.93
2023-04-09T11:40:29.242Z,12.79
2023-04-09T11:42:57.212Z,12.85
2023-04-09T11:45:29.701Z,13.12
2023-04-09T11:47:57.227Z,12.86
2023-04-09T11:50:25.117Z,13.23
2023-04-09T11:52:52.635Z,13.19
2023-04-09T11:55:38.073Z,13.49
2023-04-09T11:58:05.350Z,13.46
2023-04-09T12:00:33.173Z,13.20
2023-04-09T12:03:04.057Z,13.20
2023-04-09T12:05:34.898Z,13.33
2023-04-09T12:08:08.952Z,13.27
2023-04-09T12:10:38.817Z,12.84
2023-04-09T12:13:11.070Z,12.82
2023-04-09T12:15:43.372Z,12.99
2023-04-09T12:18:12.703Z,12.23
2023-04-09T12:20:44.189Z,12.05
2023-04-09T12:23:12.803Z,12.33
2023-04-09T12:25:45.452Z,12.04
2023-04-09T12:28:15.981Z,12.17
2023-04-09T12:30:43.666Z,12.34
2023-04-09T12:33:11.559Z,12.32
2023-04-09T12:35:39.190Z,12.58
2023-04-09T12:38:06.818Z,12.52
2023-04-09T12:40:36.366Z,12.47
2023-04-09T12:43:04.268Z,12.42
2023-04-09T12:45:32.148Z,12.66
2023-04-09T12:47:59.480Z,12.63
2023-04-09T12:50:26.879Z,12.66
2023-04-09T12:52:54.372Z,12.64
2023-04-09T12:55:22.243Z,12.68
2023-04-09T12:57:51.416Z,12.89
2023-04-09T13:00:18.755Z,13.22
2023-04-09T13:02:46.628Z,13.44
2023-04-09T13:05:14.021Z,13.59
2023-04-09T13:07:43.010Z,13.42
2023-04-09T13:10:11.271Z,13.20
2023-04-09T13:12:38.643Z,13.42
2023-04-09T13:15:06.817Z,13.73
2023-04-09T13:17:34.174Z,13.57
2023-04-09T13:20:01.773Z,13.51
2023-04-09T13:22:29.169Z,14.19
2023-04-09T13:24:56.781Z,14.39
2023-04-09T13:27:24.147Z,14.67
2023-04-09T13:29:51.482Z,14.27
2023-04-09T13:32:21.096Z,14.17
2023-04-09T13:34:48.712Z,13.78
2023-04-09T13:37:16.590Z,13.88
2023-04-09T13:39:44.890Z,13.58
2023-04-09T13:42:14.147Z,13.93
2023-04-09T13:44:44.842Z,14.14
2023-04-09T13:47:13.673Z,14.05
2023-04-09T13:49:42.492Z,13.97
2023-04-09T13:52:10.821Z,13.90
2023-04-09T13:54:38.466Z,13.92
2023-04-09T13:57:05.752Z,13.51
2023-04-09T13:59:32.923Z,12.94
2023-04-09T14:02:00.512Z,12.96
2023-04-09T14:04:27.962Z,12.73
2023-04-09T14:06:57.534Z,12.70
2023-04-09T14:09:24.871Z,13.08
2023-04-09T14:11:52.201Z,13.17
2023-04-09T14:14:19.994Z,13.24
2023-04-09T14:16:48.469Z,13.27
2023-04-09T14:19:15.984Z,13.32
2023-04-09T14:21:43.327Z,13.12
2023-04-09T14:24:10.753Z,12.99
2023-04-09T14:26:38.145Z,12.96
2023-04-09T14:29:05.329Z,12.94
2023-04-09T14:31:32.617Z,12.97
2023-04-09T14:33:59.967Z,13.36
2023-04-09T14:36:27.401Z,13.66
2023-04-09T14:38:57.359Z,13.40
2023-04-09T14:41:24.989Z,13.00
2023-04-09T14:43:52.381Z,13.04
2023-04-09T14:46:20.312Z,12.79
2023-04-09T14:48:47.711Z,13.15
2023-04-09T14:51:15.383Z,12.85
2023-04-09T14:53:43.169Z,12.93
2023-04-09T14:56:10.568Z,13.19
2023-04-09T14:58:38.142Z,13.19
2023-04-09T15:01:05.956Z,13.30
2023-04-09T15:03:33.320Z,13.22
2023-04-09T15:06:00.774Z,13.14
2023-04-09T15:08:28.026Z,13.27
2023-04-09T15:10:55.262Z,13.17
2023-04-09T15:13:22.651Z,12.79
2023-04-09T15:15:50.422Z,13.04
2023-04-09T15:18:18.685Z,12.93
2023-04-09T15:20:46.933Z,12.60
2023-04-09T15:23:14.163Z,12.56
2023-04-09T15:25:41.526Z,12.54
2023-04-09T15:28:08.770Z,12.46
2023-04-09T15:30:36.214Z,12.63
2023-04-09T15:33:04.540Z,12.79
2023-04-09T15:35:31.850Z,12.76
2023-04-09T15:37:59.204Z,12.77
2023-04-09T15:40:26.699Z,12.73
2023-04-09T15:42:58.479Z,12.75
2023-04-09T15:45:26.929Z,12.79
2023-04-09T15:47:54.326Z,12.71
2023-04-09T15:50:21.710Z,12.71
2023-04-09T15:52:49.197Z,12.76
2023-04-09T15:55:16.508Z,13.09
2023-04-09T15:57:46.892Z,13.06
2023-04-09T16:00:15.537Z,12.96
2023-04-09T16:02:43.122Z,12.94
2023-04-09T16:05:10.492Z,12.71
2023-04-09T16:07:38.408Z,12.73
2023-04-09T16:10:06.495Z,12.26
2023-04-09T16:12:33.834Z,12.35
2023-04-09T16:15:01.497Z,11.86
2023-04-09T16:17:28.850Z,11.89
2023-04-09T16:19:56.436Z,11.76
2023-04-09T16:22:23.732Z,11.63
2023-04-09T16:24:51.009Z,11.69
2023-04-09T16:27:18.302Z,11.61
2023-04-09T16:29:46.257Z,11.63
2023-04-09T16:32:13.543Z,11.59
2023-04-09T16:34:41.300Z,11.66
2023-04-09T16:37:08.650Z,11.26
2023-04-09T16:39:36.014Z,10.97
2023-04-09T16:42:03.354Z,10.81
2023-04-09T16:44:30.877Z,10.75
2023-04-09T16:46:58.231Z,10.75
2023-04-09T16:49:25.661Z,10.72
2023-04-09T16:51:54.061Z,10.34
2023-04-09T16:54:21.322Z,10.14
2023-04-09T16:56:48.966Z,10.29
2023-04-09T16:59:18.512Z,9.96
2023-04-09T17:01:46.025Z,9.78
2023-04-09T17:04:13.708Z,9.87
2023-04-09T17:06:41.201Z,9.90
2023-04-09T17:09:08.475Z,9.59
2023-04-09T17:11:37.446Z,9.44
2023-04-09T17:14:05.837Z,9.67
2023-04-09T17:16:33.532Z,9.55
2023-04-09T17:19:00.950Z,9.36
2023-04-09T17:21:28.209Z,9.16
2023-04-09T17:23:55.417Z,9.10
2023-04-09T17:26:22.608Z,9.06
2023-04-09T17:28:50.769Z,9.00
2023-04-09T17:31:18.873Z,8.93
2023-04-09T17:33:49.394Z,8.74
2023-04-09T17:36:21.245Z,8.65
2023-04-09T17:38:52.254Z,8.49
2023-04-09T17:41:19.785Z,8.44
2023-04-09T17:43:46.955Z,8.26
2023-04-09T17:46:14.563Z,8.35
2023-04-09T17:48:41.892Z,8.33
2023-04-09T17:51:15.112Z,8.33
2023-04-09T17:53:42.871Z,8.22
2023-04-09T17:56:18.073Z,8.19
2023-04-09T17:58:46.641Z,7.89
2023-04-09T18:01:14.139Z,7.94
2023-04-09T18:03:42.772Z,7.80
2023-04-09T18:06:10.338Z,7.60
2023-04-09T18:08:37.572Z,7.52
2023-04-09T18:11:12.846Z,7.34
2023-04-09T18:13:40.678Z,7.60
2023-04-09T18:16:12.541Z,7.92
2023-04-09T18:18:40.054Z,7.73
2023-04-09T18:21:07.436Z,7.79
2023-04-09T18:23:34.877Z,7.96
2023-04-09T18:26:02.481Z,7.79
2023-04-09T18:28:29.670Z,7.78
2023-04-09T18:30:57.808Z,7.78
2023-04-09T18:33:26.682Z,8.12
2023-04-09T18:35:54.005Z,7.96
2023-04-09T18:38:21.751Z,8.06
2023-04-09T18:40:48.996Z,8.45
2023-04-09T18:43:16.393Z,8.75
2023-04-09T18:45:43.570Z,8.71
2023-04-09T18:48:11.147Z,8.72
2023-04-09T18:50:38.482Z,8.67
2023-04-09T18:53:07.074Z,8.74
2023-04-09T18:55:38.158Z,8.76
2023-04-09T18:58:12.859Z,8.91
2023-04-09T19:00:40.190Z,9.01
2023-04-09T19:03:08.458Z,8.97
2023-04-09T19:05:36.268Z,8.94
2023-04-09T19:08:05.750Z,8.89
2023-04-09T19:10:33.004Z,8.85
2023-04-09T19:13:00.450Z,8.82
2023-04-09T19:15:29.450Z,8.93
2023-04-09T19:17:57.484Z,8.63
2023-04-09T19:20:24.845Z,8.47
2023-04-09T19:22:54.588Z,8.86
2023-04-09T19:25:23.220Z,8.68
2023-04-09T19:27:54.368Z,8.61
2023-04-09T19:30:21.807Z,8.56
2023-04-09T19:32:49.277Z,8.62
2023-04-09T19:35:17.003Z,8.87
2023-04-09T19:37:44.936Z,9.04
2023-04-09T19:40:15.798Z,8.88
2023-04-09T19:42:43.436Z,8.70
2023-04-09T19:45:11.497Z,8.58
2023-04-09T19:47:38.870Z,8.80
2023-04-09T19:50:06.867Z,8.86
2023-04-09T19:52:34.151Z,8.99
2023-04-09T19:55:02.084Z,8.87
2023-04-09T19:57:31.708Z,8.93
2023-04-09T19:59:59.144Z,8.87
2023-04-09T20:02:26.942Z,8.79
2023-04-09T20:04:54.644Z,8.75
2023-04-09T20:07:22.063Z,8.51
2023-04-09T20:09:49.726Z,8.35
2023-04-09T20:12:17.226Z,8.36
2023-04-09T20:14:44.630Z,8.40
2023-04-09T20:17:12.158Z,8.34
2023-04-09T20:19:39.518Z,8.28
2023-04-09T20:22:06.905Z,8.38
2023-04-09T20:24:35.395Z,8.30
2023-04-09T20:27:03.910Z,8.09
2023-04-09T20:29:31.214Z,8.19
2023-04-09T20:31:58.601Z,8.20
2023-04-09T20:34:28.663Z,8.25
2023-04-09T20:36:56.722Z,8.12
2023-04-09T20:39:27.445Z,8.42
2023-04-09T20:41:56.685Z,8.48
2023-04-09T20:44:24.521Z,8.54
2023-04-09T20:46:52.007Z,8.62
2023-04-09T20:49:19.333Z,8.43
2023-04-09T20:51:46.666Z,8.45
2023-04-09T20:54:13.944Z,8.53
2023-04-09T20:56:41.585Z,8.45
2023-04-09T20:59:08.890Z,8.70
2023-04-09T21:01:36.377Z,8.63
2023-04-09T21:04:04.056Z,8.36
2023-04-09T21:06:31.421Z,8.14
2023-04-09T21:08:59.764Z,8.26
2023-04-09T21:11:27.255Z,8.42
2023-04-09T21:13:55.558Z,8.55
2023-04-09T21:16:23.349Z,8.41
2023-04-09T21:18:51.033Z,8.48
2023-04-09T21:21:18.703Z,8.45
2023-04-09T21:23:46.081Z,8.65
2023-04-09T21:26:14.178Z,8.63
2023-04-09T21:28:41.561Z,8.66
2023-04-09T21:31:13.230Z,8.59
2023-04-09T21:33:40.622Z,8.47
2023-04-09T21:36:09.156Z,8.56
2023-04-09T21:38:36.461Z,8.72
2023-04-09T21:41:04.080Z,8.68
2023-04-09T21:43:31.324Z,8.64
2023-04-09T21:45:58.758Z,8.47
2023-04-09T21:48:26.790Z,8.51
2023-04-09T21:50:54.158Z,8.55
2023-04-09T21:53:21.514Z,8.71
2023-04-09T21:55:48.640Z,8.80
2023-04-09T21:58:15.960Z,8.71
2023-04-09T22:00:43.264Z,8.62
2023-04-09T22:03:11.171Z,8.51
2023-04-09T22:05:38.574Z,8.37
2023-04-09T22:08:06.218Z,8.29
2023-04-09T22:10:33.638Z,8.31
2023-04-09T22:13:01.261Z,8.11
2023-04-09T22:15:29.096Z,8.37
2023-04-09T22:17:56.470Z,8.40
2023-04-09T22:20:26.282Z,8.02
2023-04-09T22:22:57.220Z,7.96
2023-04-09T22:25:24.821Z,7.95
2023-04-09T22:27:53.873Z,8.00
2023-04-09T22:30:21.993Z,7.92
2023-04-09T22:32:50.016Z,7.86
2023-04-09T22:35:18.452Z,8.20
2023-04-09T22:37:47.034Z,7.78
2023-04-09T22:40:16.030Z,7.52
2023-04-09T22:42:46.056Z,7.72
2023-04-09T22:45:13.935Z,7.56
2023-04-09T22:47:41.231Z,7.72
2023-04-09T22:50:09.630Z,7.60
2023-04-09T22:52:36.831Z,7.58
2023-04-09T22:55:05.048Z,7.65
2023-04-09T22:57:32.481Z,7.77
2023-04-09T22:59:59.702Z,7.63
2023-04-09T23:02:27.484Z,7.45
2023-04-09T23:04:54.914Z,7.59
2023-04-09T23:07:22.116Z,7.67
2023-04-09T23:09:49.545Z,7.67
2023-04-09T23:12:16.822Z,7.96
2023-04-09T23:14:44.068Z,7.71
2023-04-09T23:17:11.369Z,7.71
2023-04-09T23:19:38.611Z,7.87
2023-04-09T23:22:06.662Z,8.02
2023-04-09T23:24:33.921Z,8.05
2023-04-09T23:27:01.024Z,8.02
2023-04-09T23:29:28.232Z,7.97
2023-04-09T23:31:55.423Z,7.84
2023-04-09T23:34:22.742Z,7.81
2023-04-09T23:36:50.082Z,7.78
2023-04-09T23:39:17.350Z,7.81
2023-04-09T23:41:44.516Z,8.00
2023-04-09T23:44:11.737Z,7.99
2023-04-09T23:46:39.002Z,7.80
2023-04-09T23:49:06.419Z,7.70
2023-04-09T23:51:33.615Z,7.92
2023-04-09T23:54:01.996Z,7.92
2023-04-09T23:56:29.631Z,7.82
2023-04-09T23:58:56.858Z,7.81
